Terminal Aerodrome Forecast
Issued by NWS Mt. Holly, NJ

Home | Current Version | Previous Version | Text Only | Print | Product List | Glossary On
Versions: 1 2 3 4 5 6 7 8 9 10 11 12 13 14 15 16 17 18 19 20 21 22 23 24 25 26 27 28 29 30 31 32 33 34 35 36 37 38 39 40 41
000
FTAK31 PANC 271734
TAFABE
TAF
PABE 271734Z 2718/2818 16008KT P6SM FEW035 SCT070 BKN150
     FM272000 17008KT P6SM VCSH SCT035 BKN050 OVC120
     FM272300 18008KT P6SM -SHRA BKN035 OVC050
     FM280600 26005KT P6SM VCSH SCT040 BKN060
     FM280900 31005KT P6SM FEW060 SCT100=

USA.gov is the U.S. government's official web portal to all federal, state and local government web resources and services.